createdAt,value
2022-10-17T00:01:49.860Z,1.90
2022-10-17T00:04:18.485Z,2.20
2022-10-17T00:06:47.108Z,1.90
2022-10-17T00:09:15.716Z,2.20
2022-10-17T00:11:44.325Z,2.03
2022-10-17T00:14:12.987Z,2.20
2022-10-17T00:16:43.024Z,2.00
2022-10-17T00:19:11.658Z,2.03
2022-10-17T00:21:40.307Z,2.00
2022-10-17T00:24:09.099Z,2.27
2022-10-17T00:26:37.727Z,1.93
2022-10-17T00:29:06.825Z,2.00
2022-10-17T00:31:36.080Z,2.27
2022-10-17T00:34:06.112Z,1.83
2022-10-17T00:36:35.036Z,2.00
2022-10-17T00:39:04.099Z,1.83
2022-10-17T00:41:35.741Z,1.70
2022-10-17T00:45:00.082Z,1.90
2022-10-17T00:47:30.170Z,2.00
2022-10-17T00:52:35.926Z,2.00
2022-10-17T00:55:13.442Z,1.80
2022-10-17T00:57:46.055Z,1.70
2022-10-17T01:00:17.705Z,1.90
2022-10-17T01:02:46.852Z,1.70
2022-10-17T01:05:19.648Z,1.93
2022-10-17T01:07:52.104Z,1.83
2022-10-17T01:13:13.489Z,2.57
2022-10-17T01:16:01.025Z,2.00
2022-10-17T01:18:46.100Z,1.97
2022-10-17T01:21:34.856Z,2.13
2022-10-17T01:25:07.500Z,2.20
2022-10-17T01:27:53.783Z,2.03
2022-10-17T01:31:00.579Z,1.70
2022-10-17T01:33:49.633Z,2.10
2022-10-17T01:36:38.900Z,2.20
2022-10-17T01:39:19.168Z,1.97
2022-10-17T01:41:59.222Z,2.00
2022-10-17T01:44:38.261Z,2.10
2022-10-17T01:47:16.910Z,2.43
2022-10-17T01:49:50.680Z,1.87
2022-10-17T01:52:26.551Z,2.30
2022-10-17T01:55:04.655Z,2.00
2022-10-17T01:57:39.204Z,2.07
2022-10-17T02:00:16.551Z,2.17
2022-10-17T02:02:51.105Z,1.80
2022-10-17T02:05:25.771Z,1.90
2022-10-17T02:07:54.429Z,1.73
2022-10-17T02:10:34.318Z,1.70
2022-10-17T02:13:10.878Z,1.83
2022-10-17T02:16:07.577Z,1.93
2022-10-17T02:19:07.493Z,2.20
2022-10-17T02:21:51.835Z,2.00
2022-10-17T02:24:39.098Z,1.90
2022-10-17T02:27:15.051Z,2.17
2022-10-17T02:29:50.345Z,1.80
2022-10-17T02:32:26.327Z,2.03
2022-10-17T02:35:01.948Z,1.93
2022-10-17T02:37:33.187Z,1.90
2022-10-17T02:40:04.501Z,2.30
2022-10-17T02:42:35.149Z,1.90
2022-10-17T02:45:08.731Z,1.73
2022-10-17T02:47:49.659Z,1.90
2022-10-17T02:50:24.566Z,1.97
2022-10-17T02:53:00.207Z,2.03
2022-10-17T02:55:34.530Z,2.00
2022-10-17T02:58:11.895Z,1.87
2022-10-17T03:00:42.380Z,1.70
2022-10-17T03:03:22.900Z,2.20
2022-10-17T03:05:54.983Z,1.80
2022-10-17T03:08:26.709Z,1.70
2022-10-17T03:10:55.633Z,2.10
2022-10-17T03:13:24.661Z,1.90
2022-10-17T03:15:53.545Z,2.10
2022-10-17T03:18:22.451Z,1.90
2022-10-17T03:20:55.754Z,1.77
2022-10-17T03:23:25.395Z,1.77
2022-10-17T03:25:54.582Z,1.90
2022-10-17T03:28:23.221Z,2.00
2022-10-17T03:30:51.963Z,1.67
2022-10-17T03:33:20.557Z,1.97
2022-10-17T03:38:21.047Z,1.90
2022-10-17T03:40:56.885Z,2.03
2022-10-17T03:43:25.594Z,1.93
2022-10-17T03:45:54.241Z,1.63
2022-10-17T03:48:22.929Z,2.00
2022-10-17T03:50:52.094Z,1.67
2022-10-17T03:53:22.257Z,2.20
2022-10-17T03:55:50.970Z,1.73
2022-10-17T03:58:20.312Z,1.90
2022-10-17T04:00:49.347Z,2.03
2022-10-17T04:03:18.240Z,1.97
2022-10-17T04:05:46.842Z,2.50
2022-10-17T04:08:15.493Z,2.30
2022-10-17T04:11:08.497Z,2.10
2022-10-17T04:13:37.730Z,1.70
2022-10-17T04:16:11.779Z,2.07
2022-10-17T04:18:46.552Z,2.00
2022-10-17T04:21:15.631Z,1.70
2022-10-17T04:23:44.179Z,2.23
2022-10-17T04:26:26.389Z,2.00
2022-10-17T04:28:55.028Z,10.47
2022-10-17T04:31:23.986Z,2.10
2022-10-17T04:34:16.595Z,1.93
2022-10-17T04:36:45.865Z,2.20
2022-10-17T04:41:45.061Z,2.00
2022-10-17T04:44:14.405Z,2.00
2022-10-17T04:46:48.723Z,2.03
2022-10-17T04:49:17.423Z,2.07
2022-10-17T04:51:49.620Z,2.00
2022-10-17T04:54:22.412Z,1.80
2022-10-17T04:56:58.528Z,2.00
2022-10-17T04:59:28.160Z,2.40
2022-10-17T05:02:07.361Z,1.90
2022-10-17T05:04:37.827Z,2.33
2022-10-17T05:07:07.022Z,2.07
2022-10-17T05:09:47.459Z,5.23
2022-10-17T05:12:18.793Z,3.57
2022-10-17T05:14:48.413Z,2.43
2022-10-17T05:17:17.470Z,2.40
2022-10-17T05:19:46.430Z,2.20
2022-10-17T05:22:16.342Z,2.20
2022-10-17T05:24:45.848Z,2.33
2022-10-17T05:27:15.375Z,2.93
2022-10-17T05:29:45.749Z,2.37
2022-10-17T05:32:35.853Z,2.27
2022-10-17T05:35:05.452Z,2.00
2022-10-17T05:37:34.750Z,2.43
2022-10-17T05:40:05.515Z,2.10
2022-10-17T05:42:34.258Z,2.30
2022-10-17T05:45:05.786Z,2.60
2022-10-17T05:47:34.358Z,2.60
2022-10-17T05:50:03.085Z,2.80
2022-10-17T05:52:45.174Z,2.47
2022-10-17T05:55:17.979Z,3.00
2022-10-17T05:57:46.872Z,2.80
2022-10-17T06:00:20.908Z,3.00
2022-10-17T06:02:57.492Z,3.47
2022-10-17T06:05:26.475Z,3.63
2022-10-17T06:07:58.254Z,3.13
2022-10-17T06:10:31.027Z,2.80
2022-10-17T06:13:00.824Z,2.73
2022-10-17T06:15:31.113Z,2.53
2022-10-17T06:18:05.051Z,2.80
2022-10-17T06:20:35.332Z,2.63
2022-10-17T06:23:04.905Z,2.57
2022-10-17T06:25:48.287Z,2.87
2022-10-17T06:28:17.045Z,3.17
2022-10-17T06:30:47.164Z,4.70
2022-10-17T06:33:16.833Z,4.70
2022-10-17T06:35:51.680Z,5.63
2022-10-17T06:38:20.965Z,5.17
2022-10-17T06:40:51.990Z,4.37
2022-10-17T06:43:26.941Z,4.60
2022-10-17T06:46:01.734Z,4.30
2022-10-17T06:48:40.151Z,4.50
2022-10-17T06:51:41.106Z,5.60
2022-10-17T06:54:12.282Z,6.50
2022-10-17T06:57:00.799Z,5.50
2022-10-17T06:59:43.346Z,5.03
2022-10-17T07:02:20.509Z,4.83
2022-10-17T07:04:49.164Z,4.50
2022-10-17T07:07:17.740Z,4.83
2022-10-17T07:09:46.693Z,4.17
2022-10-17T07:12:17.412Z,4.27
2022-10-17T07:14:47.449Z,6.20
2022-10-17T07:17:16.580Z,6.90
2022-10-17T07:19:47.774Z,8.00
2022-10-17T07:22:16.820Z,7.60
2022-10-17T07:27:29.886Z,15.73
2022-10-17T07:30:00.776Z,9.37
2022-10-17T07:32:36.472Z,8.33
2022-10-17T07:35:08.094Z,7.33
2022-10-17T07:37:38.373Z,6.80
2022-10-17T07:40:10.111Z,7.20
2022-10-17T07:45:09.149Z,5.80
2022-10-17T07:47:38.936Z,5.57
2022-10-17T07:50:11.981Z,5.43
2022-10-17T07:52:42.790Z,6.10
2022-10-17T07:55:11.690Z,6.83
2022-10-17T07:57:40.355Z,5.30
2022-10-17T08:00:10.804Z,5.20
2022-10-17T08:02:43.016Z,5.27
2022-10-17T08:05:13.053Z,5.00
2022-10-17T08:07:41.991Z,4.50
2022-10-17T08:10:13.426Z,4.57
2022-10-17T08:12:42.528Z,5.63
2022-10-17T08:15:12.680Z,5.03
2022-10-17T08:17:41.459Z,4.63
2022-10-17T08:20:13.465Z,5.50
2022-10-17T08:22:42.241Z,8.50
2022-10-17T08:25:11.661Z,5.07
2022-10-17T08:27:40.388Z,5.77
2022-10-17T08:30:10.748Z,5.80
2022-10-17T08:32:39.389Z,5.10
2022-10-17T08:35:09.211Z,5.10
2022-10-17T08:37:39.494Z,6.70
2022-10-17T08:40:16.023Z,6.70
2022-10-17T08:43:08.281Z,6.23
2022-10-17T08:45:47.221Z,5.73
2022-10-17T08:48:21.093Z,5.63
2022-10-17T08:50:54.792Z,5.83
2022-10-17T08:53:34.167Z,6.03
2022-10-17T08:56:19.602Z,6.43
2022-10-17T08:58:54.216Z,6.13
2022-10-17T09:01:36.155Z,6.60
2022-10-17T09:04:44.929Z,6.07
2022-10-17T09:07:23.611Z,5.97
2022-10-17T09:10:06.190Z,5.97
2022-10-17T09:12:48.545Z,6.10
2022-10-17T09:15:49.350Z,6.13
2022-10-17T09:18:25.126Z,6.13
2022-10-17T09:20:58.097Z,5.73
2022-10-17T09:23:31.692Z,5.80
2022-10-17T09:26:04.444Z,4.90
2022-10-17T09:28:37.649Z,5.20
2022-10-17T09:31:13.157Z,4.93
2022-10-17T09:34:00.217Z,4.18
2022-10-17T09:36:33.801Z,4.40
2022-10-17T09:39:06.925Z,4.45
2022-10-17T09:41:46.617Z,4.05
2022-10-17T09:44:21.750Z,4.22
2022-10-17T09:47:24.070Z,4.10
2022-10-17T09:49:53.577Z,4.03
2022-10-17T09:52:29.667Z,4.50
2022-10-17T09:55:06.622Z,3.60
2022-10-17T09:57:57.077Z,3.80
2022-10-17T10:00:30.237Z,4.22
2022-10-17T10:03:21.923Z,3.58
2022-10-17T10:06:03.602Z,3.08
2022-10-17T10:08:35.864Z,3.35
2022-10-17T10:11:13.504Z,3.20
2022-10-17T10:13:45.404Z,2.60
2022-10-17T10:16:25.535Z,2.40
2022-10-17T10:18:54.442Z,2.80
2022-10-17T10:21:27.325Z,2.70
2022-10-17T10:24:13.573Z,2.05
2022-10-17T10:26:46.023Z,2.00
2022-10-17T10:29:31.320Z,2.20
2022-10-17T10:32:11.488Z,2.28
2022-10-17T10:34:48.638Z,2.15
2022-10-17T10:37:22.547Z,1.95
2022-10-17T10:39:54.439Z,1.90
2022-10-17T10:42:29.813Z,1.98
2022-10-17T10:45:23.700Z,2.30
2022-10-17T10:48:01.069Z,2.10
2022-10-17T10:50:40.645Z,1.90
2022-10-17T10:53:35.246Z,2.30
2022-10-17T10:56:12.371Z,1.95
2022-10-17T10:58:54.570Z,2.17
2022-10-17T11:01:35.474Z,2.17
2022-10-17T11:04:22.615Z,2.10
2022-10-17T11:07:03.314Z,2.50
2022-10-17T11:09:47.604Z,2.53
2022-10-17T11:12:25.815Z,2.55
2022-10-17T11:15:04.910Z,2.05
2022-10-17T11:17:46.998Z,2.22
2022-10-17T11:20:28.386Z,1.80
2022-10-17T11:23:20.006Z,2.80
2022-10-17T11:25:53.015Z,2.25
2022-10-17T11:28:25.928Z,2.58
2022-10-17T11:31:05.797Z,2.15
2022-10-17T11:33:47.373Z,2.30
2022-10-17T11:36:19.638Z,3.92
2022-10-17T11:38:54.255Z,2.28
2022-10-17T11:41:43.164Z,3.03
2022-10-17T11:44:22.550Z,2.70
2022-10-17T11:46:58.669Z,2.83
2022-10-17T11:49:40.570Z,2.67
2022-10-17T11:52:51.426Z,2.70
2022-10-17T11:55:24.552Z,2.17
2022-10-17T11:58:18.924Z,2.55
2022-10-17T12:01:08.751Z,2.30
2022-10-17T12:03:54.623Z,2.60
2022-10-17T12:06:51.256Z,3.05
2022-10-17T12:09:36.478Z,2.42
2022-10-17T12:12:05.943Z,2.25
2022-10-17T12:14:45.165Z,2.50
2022-10-17T12:17:42.358Z,2.70
2022-10-17T12:20:39.103Z,1.98
2022-10-17T12:23:29.666Z,3.53
2022-10-17T12:26:04.742Z,3.35
2022-10-17T12:28:42.462Z,3.72
2022-10-17T12:31:29.753Z,3.25
2022-10-17T12:34:03.704Z,2.97
2022-10-17T12:36:42.261Z,3.22
2022-10-17T12:39:52.516Z,2.60
2022-10-17T12:42:51.301Z,3.60
2022-10-17T12:45:50.113Z,3.75
2022-10-17T12:49:21.635Z,3.00
2022-10-17T12:52:26.061Z,4.05
2022-10-17T12:55:17.649Z,2.75
2022-10-17T12:57:56.859Z,4.28
2022-10-17T13:00:36.047Z,3.78
2022-10-17T13:03:14.143Z,3.88
2022-10-17T13:05:49.926Z,5.43
2022-10-17T13:08:24.365Z,7.22
2022-10-17T13:10:56.746Z,7.05
2022-10-17T13:13:39.178Z,7.53
2022-10-17T13:16:09.815Z,8.63
2022-10-17T13:18:38.507Z,8.60
2022-10-17T13:21:17.229Z,8.60
2022-10-17T13:23:51.187Z,9.13
2022-10-17T13:26:24.161Z,8.02
2022-10-17T13:31:45.126Z,8.20
2022-10-17T13:34:21.587Z,8.88
2022-10-17T13:36:53.807Z,7.40
2022-10-17T13:39:38.553Z,8.10
2022-10-17T13:42:32.284Z,9.30
2022-10-17T13:45:01.508Z,8.70
2022-10-17T13:47:37.870Z,9.13
2022-10-17T13:50:26.493Z,8.73
2022-10-17T13:53:30.486Z,7.03
2022-10-17T13:56:26.491Z,7.35
2022-10-17T13:58:57.431Z,7.30
2022-10-17T14:01:28.733Z,6.63
2022-10-17T14:04:08.481Z,6.78
2022-10-17T14:06:46.404Z,8.48
2022-10-17T14:09:25.531Z,5.88
2022-10-17T14:12:05.107Z,7.10
2022-10-17T14:14:58.084Z,7.30
2022-10-17T14:17:29.432Z,9.20
2022-10-17T14:23:20.849Z,5.97
2022-10-17T14:25:42.652Z,5.32
2022-10-17T14:28:18.496Z,5.90
2022-10-17T14:30:57.219Z,4.43
2022-10-17T14:33:31.365Z,5.73
2022-10-17T14:36:03.053Z,5.22
2022-10-17T14:38:32.985Z,4.95
2022-10-17T14:41:37.814Z,5.18
2022-10-17T14:44:00.338Z,4.82
2022-10-17T14:46:30.869Z,5.97
2022-10-17T14:49:07.498Z,5.82
2022-10-17T14:51:50.247Z,6.25
2022-10-17T14:54:30.402Z,5.95
2022-10-17T14:56:58.986Z,5.35
2022-10-17T14:59:52.682Z,5.32
2022-10-17T15:02:17.829Z,5.95
2022-10-17T15:04:46.493Z,7.45
2022-10-17T15:07:18.160Z,7.13
2022-10-17T15:09:49.663Z,7.05
2022-10-17T15:12:25.958Z,7.50
2022-10-17T15:14:55.283Z,7.95
2022-10-17T15:17:27.897Z,8.10
2022-10-17T15:19:58.041Z,9.90
2022-10-17T15:22:27.590Z,9.27
2022-10-17T15:24:58.233Z,10.32
2022-10-17T15:27:27.761Z,22.37
2022-10-17T15:29:56.717Z,11.50
2022-10-17T15:32:26.902Z,10.70
2022-10-17T15:34:56.010Z,10.50
2022-10-17T15:37:26.870Z,11.68
2022-10-17T15:39:57.537Z,11.20
2022-10-17T15:42:31.366Z,12.33
2022-10-17T15:45:00.473Z,13.83
2022-10-17T15:47:34.672Z,13.60
2022-10-17T15:50:03.931Z,14.00
2022-10-17T15:52:33.117Z,15.50
2022-10-17T15:55:04.383Z,16.08
2022-10-17T15:57:39.515Z,15.60
2022-10-17T16:00:17.474Z,16.10
2022-10-17T16:02:49.793Z,17.07
2022-10-17T16:05:23.801Z,17.63
2022-10-17T16:07:53.879Z,20.43
2022-10-17T16:10:26.041Z,23.23
2022-10-17T16:12:55.651Z,24.00
2022-10-17T16:15:26.724Z,24.57
2022-10-17T16:18:01.663Z,17.93
2022-10-17T16:20:33.195Z,17.33
2022-10-17T16:23:04.984Z,18.03
2022-10-17T16:25:34.519Z,22.60
2022-10-17T16:28:04.517Z,22.60
2022-10-17T16:30:35.159Z,21.13
2022-10-17T16:33:06.630Z,22.03
2022-10-17T16:35:37.558Z,23.53
2022-10-17T16:38:08.401Z,25.50
2022-10-17T16:40:41.026Z,21.60
2022-10-17T16:43:13.610Z,22.97
2022-10-17T16:45:42.980Z,23.53
2022-10-17T16:48:13.624Z,24.27
2022-10-17T16:50:42.833Z,24.37
2022-10-17T16:53:11.733Z,24.83
2022-10-17T16:55:40.762Z,22.43
2022-10-17T16:58:10.026Z,24.10
2022-10-17T17:00:41.062Z,23.93
2022-10-17T17:03:10.153Z,20.50
2022-10-17T17:05:43.639Z,20.17
2022-10-17T17:08:12.755Z,21.10
2022-10-17T17:10:46.876Z,21.87
2022-10-17T17:13:17.126Z,21.00
2022-10-17T17:15:46.366Z,23.43
2022-10-17T17:18:16.201Z,22.33
2022-10-17T17:20:46.908Z,23.13
2022-10-17T17:23:18.350Z,22.87
2022-10-17T17:25:47.402Z,21.70
2022-10-17T17:28:16.112Z,23.20
2022-10-17T17:30:46.936Z,23.77
2022-10-17T17:33:15.696Z,23.33
2022-10-17T17:35:48.416Z,24.50
2022-10-17T17:38:17.525Z,24.20
2022-10-17T17:40:50.775Z,22.67
2022-10-17T17:43:20.647Z,24.17
2022-10-17T17:45:49.605Z,25.10
2022-10-17T17:48:18.950Z,24.27
2022-10-17T17:50:49.907Z,22.90
2022-10-17T17:53:22.082Z,23.60
2022-10-17T17:56:03.434Z,24.13
2022-10-17T17:58:32.345Z,23.30
2022-10-17T18:01:02.077Z,22.97
2022-10-17T18:03:31.472Z,20.93
2022-10-17T18:06:02.448Z,21.20
2022-10-17T18:08:31.620Z,24.83
2022-10-17T18:11:00.835Z,25.00
2022-10-17T18:13:30.097Z,22.97
2022-10-17T18:16:01.975Z,21.80
2022-10-17T18:18:32.012Z,22.37
2022-10-17T18:21:04.575Z,22.57
2022-10-17T18:23:33.704Z,22.73
2022-10-17T18:26:03.038Z,21.77
2022-10-17T18:28:34.358Z,20.53
2022-10-17T18:31:08.040Z,22.87
2022-10-17T18:33:37.572Z,20.37
2022-10-17T18:36:11.350Z,21.67
2022-10-17T18:38:40.291Z,21.30
2022-10-17T18:41:12.227Z,20.77
2022-10-17T18:43:44.169Z,21.60
2022-10-17T18:46:19.322Z,20.10
2022-10-17T18:48:50.941Z,21.30
2022-10-17T18:51:24.388Z,20.57
2022-10-17T18:53:56.531Z,20.87
2022-10-17T18:56:27.084Z,20.00
2022-10-17T18:58:56.901Z,20.87
2022-10-17T19:01:28.813Z,20.03
2022-10-17T19:04:00.953Z,19.20
2022-10-17T19:06:33.439Z,20.13
2022-10-17T19:09:06.668Z,20.50
2022-10-17T19:11:37.421Z,19.87
2022-10-17T19:14:13.548Z,20.17
2022-10-17T19:16:48.281Z,19.97
2022-10-17T19:19:19.778Z,20.83
2022-10-17T19:21:50.608Z,20.43
2022-10-17T19:24:22.211Z,20.63
2022-10-17T19:26:53.755Z,21.30
2022-10-17T19:29:25.739Z,19.73
2022-10-17T19:34:28.946Z,20.33
2022-10-17T19:36:59.191Z,19.97
2022-10-17T19:39:28.203Z,20.33
2022-10-17T19:41:57.038Z,21.13
2022-10-17T19:44:25.879Z,19.57
2022-10-17T19:46:54.602Z,19.27
2022-10-17T19:49:23.126Z,19.43
2022-10-17T19:51:51.890Z,19.97
2022-10-17T19:54:21.833Z,20.03
2022-10-17T19:56:50.514Z,20.17
2022-10-17T19:59:19.478Z,19.53
2022-10-17T20:01:48.405Z,18.63
2022-10-17T20:04:17.067Z,19.90
2022-10-17T20:06:45.702Z,19.33
2022-10-17T20:09:16.976Z,18.07
2022-10-17T20:11:50.721Z,18.60
2022-10-17T20:14:19.491Z,18.93
2022-10-17T20:16:52.972Z,18.13
2022-10-17T20:19:21.927Z,19.37
2022-10-17T20:21:50.649Z,19.40
2022-10-17T20:24:19.395Z,18.03
2022-10-17T20:26:49.494Z,18.17
2022-10-17T20:29:21.057Z,19.47
2022-10-17T20:31:50.271Z,18.83
2022-10-17T20:34:20.854Z,19.10
2022-10-17T20:36:50.953Z,18.30
2022-10-17T20:39:22.072Z,18.27
2022-10-17T20:41:52.152Z,19.47
2022-10-17T20:44:20.956Z,18.17
2022-10-17T20:47:01.100Z,18.83
2022-10-17T20:49:31.718Z,17.90
2022-10-17T20:52:01.647Z,19.10
2022-10-17T20:54:30.433Z,18.97
2022-10-17T20:57:03.888Z,17.93
2022-10-17T20:59:35.311Z,18.03
2022-10-17T21:02:04.193Z,17.80
2022-10-17T21:04:46.350Z,17.70
2022-10-17T21:07:15.717Z,17.13
2022-10-17T21:09:45.494Z,18.03
2022-10-17T21:12:25.834Z,17.67
2022-10-17T21:15:00.192Z,17.43
2022-10-17T21:17:28.959Z,18.10
2022-10-17T21:19:57.705Z,17.27
2022-10-17T21:22:26.486Z,16.17
2022-10-17T21:24:55.192Z,17.33
2022-10-17T21:27:25.202Z,17.07
2022-10-17T21:29:53.874Z,17.20
2022-10-17T21:32:40.089Z,16.57
2022-10-17T21:35:11.438Z,17.60
2022-10-17T21:37:40.077Z,17.30
2022-10-17T21:40:13.489Z,17.33
2022-10-17T21:42:43.617Z,17.27
2022-10-17T21:45:15.809Z,18.40
2022-10-17T21:48:18.543Z,18.50
2022-10-17T21:50:37.462Z,17.43
2022-10-17T21:53:06.011Z,17.57
2022-10-17T21:55:37.158Z,16.87
2022-10-17T21:58:07.214Z,17.30
2022-10-17T22:00:35.805Z,17.07
2022-10-17T22:03:05.958Z,17.70
2022-10-17T22:05:34.633Z,18.30
2022-10-17T22:08:03.276Z,17.03
2022-10-17T22:10:32.125Z,15.97
2022-10-17T22:13:00.741Z,16.93
2022-10-17T22:15:31.428Z,16.00
2022-10-17T22:18:00.091Z,17.20
2022-10-17T22:20:28.787Z,16.20
2022-10-17T22:22:57.352Z,16.17
2022-10-17T22:25:26.433Z,16.77
2022-10-17T22:27:55.161Z,16.10
2022-10-17T22:30:23.802Z,15.97
2022-10-17T22:32:53.815Z,15.00
2022-10-17T22:35:22.445Z,15.67
2022-10-17T22:37:51.024Z,17.00
2022-10-17T22:40:19.743Z,15.87
2022-10-17T22:42:48.280Z,15.87
2022-10-17T22:45:16.989Z,16.17
2022-10-17T22:47:45.562Z,15.20
2022-10-17T22:50:15.656Z,14.50
2022-10-17T22:52:44.228Z,14.03
2022-10-17T22:55:12.967Z,14.77
2022-10-17T22:57:42.221Z,15.23
2022-10-17T23:00:13.779Z,13.43
2022-10-17T23:02:42.588Z,13.53
2022-10-17T23:05:12.281Z,13.73
2022-10-17T23:07:42.334Z,13.43
2022-10-17T23:10:11.746Z,13.67
2022-10-17T23:12:40.348Z,13.77
2022-10-17T23:15:10.593Z,12.77
2022-10-17T23:17:39.233Z,12.30
2022-10-17T23:20:09.404Z,11.77
2022-10-17T23:22:37.986Z,12.00
2022-10-17T23:25:09.532Z,11.43
2022-10-17T23:27:38.330Z,11.47
2022-10-17T23:30:08.548Z,10.87
2022-10-17T23:32:37.226Z,11.90
2022-10-17T23:35:06.764Z,10.67
2022-10-17T23:37:35.874Z,11.00
2022-10-17T23:40:05.973Z,11.13
2022-10-17T23:42:35.963Z,10.93
2022-10-17T23:45:05.302Z,10.50
2022-10-17T23:47:34.085Z,11.10
2022-10-17T23:50:02.959Z,10.80
2022-10-17T23:52:31.692Z,10.33
2022-10-17T23:55:00.406Z,10.87
2022-10-17T23:57:29.380Z,10.80
2022-10-17T23:59:59.626Z,11.60
